In Rescue
 
Open Full Screen Window  High Contrast Mode
Wind Gusting 19 knots
14
April 20, 2024 8:09 AM CDT
Weather Information
Wind Direction
  330 °
Wind Speed
  14 kt (16 mph)
Wind Gust
  19 kt (22 mph)
Altimeter
30.30 in
Visibility
10 SM
Temperature
00° C
32° F
Dewpoint
-07° C
19° F
Humidity
59%
Sky Condition
Overcast @ 3,100 ft
VFR

METAR KHCD 201309Z AUTO 33014G19KT 10SM OVC031 00/M07 A3030 RMK AO2 T00011070

FAA Disclaimer: The data displayed is for advisory purposes only and is not to be used for flight planning or operations.